Terminal Aerodrome Forecast
Issued by NWS

Home | Current Version | Previous Version | Text Only | Print | Product List | Glossary On
Versions: 1 2 3 4 5 6 7 8 9 10 11 12 13 14 15 16 17 18 19 20
986
FTUS41 KCAR 032156 AAA
TAFFVE
TAF AMD
KFVE 032156Z 0322/0418 34010KT P6SM VCSH SCT025 OVC035
      TEMPO 0322/0324 BKN025
     FM040000 34008KT P6SM OVC015
     FM041500 34012KT P6SM SCT015 OVC025=

USA.gov is the U.S. government's official web portal to all federal, state and local government web resources and services.